Time;durP1;ratioP1;P1;durP2;ratioP2;P2;SDS_P1;SDS_P2;PMS_P1;PMS_P2;Temp;Humidity;BMP_temperature;BMP_pressure;BME280_temperature;BME280_humidity;BME280_pressure;Samples;Min_cycle;Max_cycle;Signal;HPM_P1;HPM_P2
2023/04/13 00:00:36;;;;;;;1.40;1.30;;;;;;;5.71;100.00;99648.56;5025250;28;20185;-45
2023/04/13 00:03:03;;;;;;;1.50;1.35;;;;;;;5.76;100.00;99642.13;5009725;28;20647;-44
2023/04/13 00:05:29;;;;;;;1.27;1.13;;;;;;;5.75;100.00;99635.09;5006927;28;20189;-43
2023/04/13 00:07:55;;;;;;;1.30;1.20;;;;;;;5.67;100.00;99653.13;5009324;28;20672;-44
2023/04/13 00:10:22;;;;;;;1.40;1.30;;;;;;;5.74;100.00;99651.09;5012912;28;20183;-42
2023/04/13 00:12:49;;;;;;;1.55;1.45;;;;;;;5.55;100.00;99657.13;5014065;28;20195;-49
2023/04/13 00:15:16;;;;;;;3.53;1.35;;;;;;;5.38;100.00;99654.19;5014250;28;20188;-46
2023/04/13 00:17:42;;;;;;;2.45;1.52;;;;;;;5.34;100.00;99663.19;5018841;28;20754;-43
2023/04/13 00:20:12;;;;;;;3.15;1.70;;;;;;;5.39;100.00;99655.91;5014133;28;20180;-43
2023/04/13 00:22:39;;;;;;;3.85;1.60;;;;;;;5.35;100.00;99655.16;5007748;28;20187;-42
2023/04/13 00:25:05;;;;;;;3.75;2.55;;;;;;;5.27;100.00;99673.16;5010969;28;20180;-46
2023/04/13 00:27:31;;;;;;;2.58;2.33;;;;;;;5.29;100.00;99670.44;5013547;28;20271;-44
2023/04/13 00:29:58;;;;;;;2.50;2.40;;;;;;;5.24;100.00;99673.25;5016899;28;20239;-44
2023/04/13 00:32:24;;;;;;;3.30;3.00;;;;;;;5.25;100.00;99675.00;5013301;28;20175;-48
2023/04/13 00:34:51;;;;;;;3.53;2.65;;;;;;;5.36;100.00;99674.63;5011825;28;20274;-50
2023/04/13 00:37:18;;;;;;;4.07;3.38;;;;;;;5.25;100.00;99675.00;5018378;28;20196;-49
2023/04/13 00:39:45;;;;;;;4.55;3.97;;;;;;;5.31;100.00;99685.41;4998809;28;20181;-46
2023/04/13 00:42:12;;;;;;;5.65;5.07;;;;;;;5.27;100.00;99685.56;5012591;28;20425;-43
2023/04/13 00:44:38;;;;;;;6.50;5.30;;;;;;;5.28;100.00;99676.69;5018416;28;20260;-48
2023/04/13 00:47:05;;;;;;;8.20;6.13;;;;;;;5.21;100.00;99667.19;5005378;28;20181;-46
2023/04/13 00:49:34;;;;;;;6.47;5.72;;;;;;;5.15;100.00;99671.78;5015287;28;20201;-44
2023/04/13 00:52:04;;;;;;;9.15;7.30;;;;;;;5.16;100.00;99676.19;5016905;28;20186;-44
2023/04/13 00:54:31;;;;;;;7.93;7.13;;;;;;;5.14;100.00;99682.47;5014950;28;20263;-47
2023/04/13 00:56:58;;;;;;;10.15;8.95;;;;;;;5.09;100.00;99679.94;5018343;28;20250;-44
2023/04/13 00:59:28;;;;;;;10.88;8.45;;;;;;;5.13;100.00;99684.25;5016658;28;20729;-42
2023/04/13 01:01:57;;;;;;;11.88;9.15;;;;;;;5.07;100.00;99678.28;4996651;28;20252;-43
2023/04/13 01:04:29;;;;;;;11.90;10.38;;;;;;;4.93;100.00;99689.38;5017585;28;20640;-42
2023/04/13 01:07:12;;;;;;;14.20;11.23;;;;;;;5.01;100.00;99670.53;5012651;28;20266;-44
2023/04/13 01:09:51;;;;;;;13.05;10.40;;;;;;;5.06;100.00;99673.91;5008334;28;20205;-43
2023/04/13 01:12:25;;;;;;;12.45;10.70;;;;;;;5.00;100.00;99671.44;5015042;28;20171;-44
2023/04/13 01:15:00;;;;;;;15.18;12.20;;;;;;;4.92;100.00;99675.25;5008162;28;20209;-47
2023/04/13 01:17:30;;;;;;;14.93;12.10;;;;;;;4.92;100.00;99680.56;5005494;28;20258;-43
2023/04/13 01:20:10;;;;;;;12.63;11.00;;;;;;;4.86;100.00;99687.84;5009694;28;20183;-43
2023/04/13 01:22:41;;;;;;;14.15;11.60;;;;;;;4.71;100.00;99679.47;5014563;28;20263;-43
2023/04/13 01:25:32;;;;;;;15.68;11.90;;;;;;;4.57;100.00;99692.31;5018202;28;20571;-47
2023/04/13 01:28:06;;;;;;;15.52;12.32;;;;;;;4.52;100.00;99687.13;5011135;28;20199;-45
2023/04/13 01:30:36;;;;;;;15.73;13.05;;;;;;;4.51;100.00;99685.41;5004263;28;20181;-47
2023/04/13 01:33:04;;;;;;;15.95;13.10;;;;;;;4.46;100.00;99676.75;5016741;28;20187;-43
2023/04/13 01:35:32;;;;;;;18.35;13.65;;;;;;;4.45;100.00;99688.25;5003011;28;20201;-42
2023/04/13 01:37:58;;;;;;;18.35;14.30;;;;;;;4.46;100.00;99689.13;5006694;28;20210;-42
2023/04/13 01:40:27;;;;;;;23.10;14.73;;;;;;;4.36;100.00;99685.91;5014638;28;20566;-48
2023/04/13 01:42:55;;;;;;;18.10;14.52;;;;;;;4.32;100.00;99686.91;5021646;28;20640;-44
2023/04/13 01:45:24;;;;;;;16.90;14.38;;;;;;;4.29;100.00;99693.19;5008715;28;20208;-43
2023/04/13 01:48:10;;;;;;;17.20;14.10;;;;;;;4.35;100.00;99692.09;5012107;28;20536;-44
2023/04/13 01:51:15;;;;;;;21.42;15.07;;;;;;;4.30;100.00;99694.91;5011495;28;20205;-47
2023/04/13 01:54:16;;;;;;;21.83;15.45;;;;;;;4.29;100.00;99692.31;5023280;28;20203;-43
2023/04/13 01:56:45;;;;;;;20.58;15.25;;;;;;;4.21;100.00;99694.34;4984961;28;20189;-44
2023/04/13 01:59:11;;;;;;;24.58;16.80;;;;;;;4.22;100.00;99691.63;5011139;28;20305;-43
2023/04/13 02:01:41;;;;;;;21.55;15.45;;;;;;;4.24;100.00;99704.81;5007431;28;20180;-43
2023/04/13 02:04:08;;;;;;;24.65;16.85;;;;;;;4.21;100.00;99697.84;5011535;28;20242;-45
2023/04/13 02:06:38;;;;;;;22.15;16.00;;;;;;;4.24;100.00;99702.19;5016674;28;20179;-48
2023/04/13 02:09:05;;;;;;;25.63;16.05;;;;;;;4.17;100.00;99706.78;5017998;28;20216;-46
2023/04/13 02:11:33;;;;;;;23.52;16.15;;;;;;;4.23;100.00;99713.72;5009165;28;20643;-41
2023/04/13 02:14:01;;;;;;;23.45;15.98;;;;;;;4.23;100.00;99714.56;5001132;28;20212;-47
2023/04/13 02:16:28;;;;;;;24.80;15.43;;;;;;;4.23;100.00;99708.41;5015519;28;20193;-42
2023/04/13 02:18:55;;;;;;;23.88;14.80;;;;;;;4.15;100.00;99710.41;5011424;28;20784;-44
2023/04/13 02:21:21;;;;;;;22.20;15.98;;;;;;;4.16;100.00;99714.81;4991882;28;20184;-53
2023/04/13 02:23:48;;;;;;;22.92;15.85;;;;;;;4.19;100.00;99712.94;5020769;28;20649;-42
2023/04/13 02:26:17;;;;;;;23.48;14.85;;;;;;;4.17;100.00;99711.25;5003947;28;20263;-44
2023/04/13 02:28:44;;;;;;;24.38;15.23;;;;;;;4.18;100.00;99710.34;5009763;28;20204;-48
2023/04/13 02:31:15;;;;;;;21.90;14.93;;;;;;;4.11;100.00;99707.88;5006772;28;20657;-48
2023/04/13 02:33:43;;;;;;;21.77;13.85;;;;;;;4.16;100.00;99705.06;5013798;28;20172;-47
2023/04/13 02:36:09;;;;;;;20.95;14.60;;;;;;;4.06;100.00;99706.25;5012142;28;20207;-46
2023/04/13 02:38:38;;;;;;;22.38;14.77;;;;;;;3.97;100.00;99704.75;5013871;28;20275;-46
2023/04/13 02:41:11;;;;;;;19.60;14.50;;;;;;;3.96;100.00;99715.38;5014040;28;20185;-44
2023/04/13 02:43:36;;;;;;;20.70;13.82;;;;;;;3.92;100.00;99718.13;5015279;28;20175;-43
2023/04/13 02:46:03;;;;;;;20.55;13.90;;;;;;;3.80;100.00;99718.47;5019172;28;20177;-45
2023/04/13 02:48:33;;;;;;;21.48;13.85;;;;;;;3.78;100.00;99717.63;5017952;28;20453;-43
2023/04/13 02:51:02;;;;;;;22.65;15.05;;;;;;;3.76;100.00;99713.31;4984537;28;20299;-43
2023/04/13 02:53:30;;;;;;;21.42;14.07;;;;;;;3.73;100.00;99724.88;5014095;28;20739;-49
2023/04/13 02:56:01;;;;;;;20.38;13.52;;;;;;;3.69;100.00;99712.59;5017774;28;20677;-46
2023/04/13 02:58:30;;;;;;;20.65;13.93;;;;;;;3.64;100.00;99718.03;5012009;28;20216;-44
2023/04/13 03:00:58;;;;;;;23.02;13.32;;;;;;;3.64;100.00;99714.53;5013561;28;20393;-47
2023/04/13 03:03:25;;;;;;;19.08;13.50;;;;;;;3.56;100.00;99717.38;5017262;28;20319;-46
2023/04/13 03:05:51;;;;;;;22.65;13.73;;;;;;;3.49;100.00;99721.97;5022867;28;20204;-49
2023/04/13 03:08:21;;;;;;;19.50;12.68;;;;;;;3.47;100.00;99721.13;5013233;28;20224;-46
2023/04/13 03:10:59;;;;;;;21.00;12.63;;;;;;;3.44;100.00;99707.13;5008508;28;20213;-45
2023/04/13 03:13:26;;;;;;;21.20;13.68;;;;;;;3.43;100.00;99715.97;4998183;28;20195;-43
2023/04/13 03:15:54;;;;;;;21.42;13.35;;;;;;;3.41;100.00;99723.97;5014849;28;20428;-46
2023/04/13 03:18:20;;;;;;;22.45;13.07;;;;;;;3.42;100.00;99716.91;5009070;28;20204;-45
2023/04/13 03:20:46;;;;;;;22.83;12.93;;;;;;;3.36;100.00;99711.75;5012459;28;20217;-43
2023/04/13 03:23:12;;;;;;;17.73;12.10;;;;;;;3.34;100.00;99713.59;5017532;28;20198;-43
2023/04/13 03:25:38;;;;;;;20.98;13.88;;;;;;;3.27;100.00;99707.59;5019568;28;20187;-44
2023/04/13 03:28:05;;;;;;;24.52;12.98;;;;;;;3.23;100.00;99720.00;5009494;28;20219;-47
2023/04/13 03:30:36;;;;;;;21.27;13.38;;;;;;;3.16;100.00;99718.44;5012139;28;20570;-44
2023/04/13 03:33:01;;;;;;;19.23;13.18;;;;;;;3.11;100.00;99723.00;5014167;28;20176;-47
2023/04/13 03:35:31;;;;;;;20.58;13.20;;;;;;;3.12;100.00;99713.28;4999882;28;20196;-49
2023/04/13 03:38:00;;;;;;;24.67;14.63;;;;;;;3.04;100.00;99722.28;5019828;28;20208;-45
2023/04/13 03:40:33;;;;;;;24.77;14.82;;;;;;;3.02;100.00;99732.03;5015337;28;20180;-45
2023/04/13 03:42:59;;;;;;;20.33;15.57;;;;;;;3.09;100.00;99735.41;5016076;28;20181;-44
2023/04/13 03:45:28;;;;;;;26.85;16.13;;;;;;;3.06;100.00;99731.06;5016693;28;20378;-45
2023/04/13 03:47:56;;;;;;;23.27;16.17;;;;;;;3.02;100.00;99731.19;4998517;28;20207;-45
2023/04/13 03:50:24;;;;;;;26.00;16.75;;;;;;;3.03;100.00;99736.41;5017705;28;20183;-44
2023/04/13 03:52:50;;;;;;;28.73;18.92;;;;;;;3.07;100.00;99734.56;4993654;28;20272;-47
2023/04/13 03:55:17;;;;;;;32.95;19.05;;;;;;;3.01;100.00;99735.56;5014487;28;20199;-44
2023/04/13 03:57:47;;;;;;;26.73;18.98;;;;;;;3.01;100.00;99737.34;5018269;28;20240;-46
2023/04/13 04:00:17;;;;;;;38.00;20.48;;;;;;;3.01;100.00;99735.56;5022889;28;20237;-46
2023/04/13 04:02:53;;;;;;;35.42;20.60;;;;;;;3.00;100.00;99747.09;5010773;28;20181;-44
2023/04/13 04:05:25;;;;;;;39.92;21.52;;;;;;;3.02;100.00;99737.34;4999686;28;20598;-42
2023/04/13 04:07:58;;;;;;;36.72;22.60;;;;;;;3.04;100.00;99734.63;5004078;28;20193;-44
2023/04/13 04:10:26;;;;;;;38.00;22.40;;;;;;;3.02;100.00;99726.75;5017564;28;20265;-45
2023/04/13 04:12:53;;;;;;;38.05;22.88;;;;;;;3.02;100.00;99728.53;5003290;28;20177;-44
2023/04/13 04:15:19;;;;;;;37.28;21.98;;;;;;;3.03;100.00;99732.91;5004548;28;20260;-47
2023/04/13 04:17:48;;;;;;;34.85;21.63;;;;;;;3.03;100.00;99724.97;5020620;28;20238;-44
2023/04/13 04:20:15;;;;;;;36.08;22.42;;;;;;;3.01;100.00;99737.34;5009760;28;20181;-44
2023/04/13 04:22:43;;;;;;;34.40;22.05;;;;;;;3.00;100.00;99741.78;4992932;28;20312;-45
2023/04/13 04:25:10;;;;;;;36.00;22.52;;;;;;;2.99;100.00;99742.69;5003412;28;20176;-47
2023/04/13 04:27:39;;;;;;;37.25;22.65;;;;;;;2.97;100.00;99751.56;5013671;28;20199;-46
2023/04/13 04:30:09;;;;;;;36.55;23.73;;;;;;;2.90;100.00;99742.91;5011744;28;20203;-43
2023/04/13 04:32:36;;;;;;;35.80;22.73;;;;;;;2.94;100.00;99755.16;5022500;28;20176;-47
2023/04/13 04:35:10;;;;;;;41.92;22.67;;;;;;;2.88;100.00;99750.88;5013427;28;20682;-48
2023/04/13 04:37:41;;;;;;;42.10;22.52;;;;;;;2.84;100.00;99749.25;5014676;28;20203;-44
2023/04/13 04:40:14;;;;;;;36.50;23.00;;;;;;;2.87;100.00;99754.44;5022451;28;20262;-43
2023/04/13 04:42:41;;;;;;;34.15;21.88;;;;;;;2.91;100.00;99749.06;5000718;28;20699;-50
2023/04/13 04:45:14;;;;;;;37.78;23.38;;;;;;;2.89;100.00;99747.34;5015342;28;20180;-42
2023/04/13 04:47:42;;;;;;;34.45;20.60;;;;;;;2.94;100.00;99749.88;5008475;28;20296;-43
2023/04/13 04:50:20;;;;;;;34.33;21.80;;;;;;;2.98;100.00;99751.53;4995633;28;20181;-41
2023/04/13 04:52:51;;;;;;;34.70;21.52;;;;;;;2.99;100.00;99752.41;5014882;28;20556;-46
2023/04/13 04:55:20;;;;;;;32.13;20.27;;;;;;;3.12;100.00;99756.47;5016901;28;20566;-42
2023/04/13 04:57:48;;;;;;;36.47;20.58;;;;;;;3.27;100.00;99753.44;5014030;28;20215;-47
2023/04/13 05:00:15;;;;;;;35.70;20.02;;;;;;;3.44;100.00;99750.38;5014214;28;20271;-49
2023/04/13 05:02:49;;;;;;;34.08;19.83;;;;;;;3.59;100.00;99745.59;5005848;28;20231;-44
2023/04/13 05:05:15;;;;;;;31.20;19.90;;;;;;;3.78;100.00;99749.44;5012674;28;20734;-50
2023/04/13 05:07:41;;;;;;;28.38;18.77;;;;;;;3.85;100.00;99760.75;5003591;28;20295;-44
2023/04/13 05:10:08;;;;;;;27.60;18.38;;;;;;;4.20;100.00;99772.09;5013167;28;20359;-46
2023/04/13 05:12:37;;;;;;;27.83;16.38;;;;;;;4.42;100.00;99759.97;5013276;28;20336;-47
2023/04/13 05:15:03;;;;;;;25.58;16.88;;;;;;;4.54;100.00;99764.03;4995185;28;20743;-44
2023/04/13 05:17:30;;;;;;;24.70;16.42;;;;;;;4.67;100.00;99767.16;5013316;28;20201;-45
2023/04/13 05:27:30;;;;;;;18.33;12.45;;;;;;;5.27;100.00;99750.19;5001873;28;20179;-50
2023/04/13 05:29:56;;;;;;;16.75;11.70;;;;;;;5.15;100.00;99745.28;5010620;28;20400;-43
2023/04/13 05:32:23;;;;;;;16.70;12.40;;;;;;;5.31;100.00;99753.56;5017569;28;20262;-44
2023/04/13 05:34:51;;;;;;;15.93;11.07;;;;;;;5.55;100.00;99752.75;5023801;28;20220;-43
2023/04/13 05:37:21;;;;;;;16.27;11.27;;;;;;;5.89;100.00;99740.03;5016933;28;20193;-45
2023/04/13 05:39:47;;;;;;;14.68;10.68;;;;;;;6.00;100.00;99731.72;5004965;28;20530;-46
2023/04/13 05:42:15;;;;;;;15.30;9.85;;;;;;;5.85;100.00;99743.72;5021050;28;20203;-47
2023/04/13 05:44:43;;;;;;;13.98;9.48;;;;;;;5.73;100.00;99729.09;5020507;28;20173;-45
2023/04/13 05:47:10;;;;;;;9.52;8.52;;;;;;;5.82;100.00;99733.22;5002101;28;20876;-42
2023/04/13 05:49:37;;;;;;;13.50;9.73;;;;;;;5.47;100.00;99732.69;5019500;28;20227;-46
2023/04/13 05:52:05;;;;;;;13.48;9.27;;;;;;;5.50;100.00;99737.88;5019958;28;20201;-46
2023/04/13 05:54:51;;;;;;;12.52;9.15;;;;;;;6.37;100.00;99728.53;5011282;28;20192;-49
2023/04/13 05:57:20;;;;;;;12.35;8.93;;;;;;;6.31;100.00;99728.75;5018828;28;20382;-43
2023/04/13 05:59:47;;;;;;;11.77;9.15;;;;;;;6.33;100.00;99725.09;5012309;28;20188;-48
2023/04/13 06:02:19;;;;;;;13.93;8.52;;;;;;;6.30;100.00;99725.22;4997029;28;20531;-44
2023/04/13 06:04:45;;;;;;;10.05;8.27;;;;;;;6.27;100.00;99721.81;5012421;28;20711;-48
2023/04/13 06:07:13;;;;;;;11.35;7.93;;;;;;;6.55;100.00;99719.81;4984011;28;20181;-45
2023/04/13 06:09:39;;;;;;;11.25;8.50;;;;;;;7.07;100.00;99729.28;5009919;28;20415;-43
2023/04/13 06:12:06;;;;;;;11.48;7.80;;;;;;;7.45;100.00;99732.97;4999207;28;20274;-44
2023/04/13 06:14:33;;;;;;;11.93;7.82;;;;;;;7.69;100.00;99732.84;5021444;28;20571;-44
2023/04/13 06:16:59;;;;;;;11.25;7.43;;;;;;;7.61;100.00;99719.88;5007415;28;20211;-44
2023/04/13 06:19:26;;;;;;;9.63;7.32;;;;;;;8.07;100.00;99720.47;5009408;28;20204;-42
2023/04/13 06:21:53;;;;;;;13.60;7.28;;;;;;;7.86;100.00;99713.44;5009771;28;20196;-46
2023/04/13 06:24:18;;;;;;;8.07;6.97;;;;;;;7.73;100.00;99723.78;5018593;28;20192;-48
2023/04/13 06:26:44;;;;;;;8.23;6.70;;;;;;;8.18;100.00;99723.50;5020835;28;20172;-43
2023/04/13 06:29:10;;;;;;;8.93;6.28;;;;;;;8.17;100.00;99715.56;5013100;28;20418;-46
2023/04/13 06:31:55;;;;;;;7.55;6.07;;;;;;;8.10;100.00;99719.47;5010887;28;20595;-45
2023/04/13 06:34:21;;;;;;;9.52;6.60;;;;;;;8.29;100.00;99714.13;5013408;28;20196;-45
2023/04/13 06:36:46;;;;;;;8.25;6.22;;;;;;;8.46;100.00;99706.22;5013315;28;20172;-49
2023/04/13 06:39:14;;;;;;;12.75;6.25;;;;;;;8.67;100.00;99709.69;5017589;28;20192;-42
2023/04/13 06:41:47;;;;;;;7.88;5.72;;;;;;;9.00;100.00;99714.31;5012826;28;20193;-43
2023/04/13 06:44:38;;;;;;;6.88;5.38;;;;;;;8.72;100.00;99704.97;5019774;28;20176;-43
2023/04/13 06:47:04;;;;;;;6.85;5.35;;;;;;;8.62;100.00;99699.22;5018901;28;20306;-43
2023/04/13 06:49:33;;;;;;;7.15;5.78;;;;;;;8.85;100.00;99718.59;5022771;28;20204;-44
2023/04/13 06:52:00;;;;;;;9.27;5.78;;;;;;;9.10;100.00;99701.38;5014033;28;20177;-45
2023/04/13 06:54:25;;;;;;;7.65;4.72;;;;;;;8.87;100.00;99703.34;5017763;28;20187;-44
2023/04/13 06:56:57;;;;;;;6.13;4.50;;;;;;;9.30;99.16;99698.53;5009974;28;20237;-48
2023/04/13 06:59:23;;;;;;;6.20;4.60;;;;;;;8.91;97.93;99690.72;5015992;28;20200;-43
2023/04/13 07:01:48;;;;;;;7.10;4.50;;;;;;;9.22;97.44;99703.41;5020538;28;20654;-42
2023/04/13 07:04:14;;;;;;;7.97;4.97;;;;;;;9.33;97.04;99697.50;5021017;28;20252;-44
2023/04/13 07:06:41;;;;;;;9.38;5.35;;;;;;;9.61;96.27;99688.94;5013028;28;20172;-43
2023/04/13 07:09:07;;;;;;;5.78;4.50;;;;;;;9.40;94.95;99699.81;5007894;28;20200;-45
2023/04/13 07:11:33;;;;;;;6.72;4.50;;;;;;;9.28;94.79;99692.41;5002749;28;20184;-44
2023/04/13 07:14:01;;;;;;;5.82;4.20;;;;;;;9.06;94.43;99703.31;5017239;28;20185;-50
2023/04/13 07:16:26;;;;;;;6.53;4.18;;;;;;;9.30;94.46;99690.53;5016857;28;20204;-49
2023/04/13 07:18:52;;;;;;;5.88;4.07;;;;;;;9.91;93.35;99691.78;5015566;28;20629;-41
2023/04/13 07:21:17;;;;;;;7.88;4.07;;;;;;;9.98;92.01;99674.44;5013269;28;20172;-45
2023/04/13 07:24:03;;;;;;;7.10;4.28;;;;;;;9.41;92.26;99690.84;4993899;28;20177;-46
2023/04/13 07:26:30;;;;;;;6.72;3.92;;;;;;;10.21;91.55;99686.59;5005605;28;20383;-45
2023/04/13 07:28:57;;;;;;;6.32;3.88;;;;;;;9.72;91.15;99688.38;5012391;28;20196;-45
2023/04/13 07:31:26;;;;;;;6.97;4.00;;;;;;;9.39;90.77;99683.84;4997345;28;20180;-43
2023/04/13 07:33:53;;;;;;;5.57;3.50;;;;;;;8.90;91.06;99689.88;5005768;28;20559;-44
2023/04/13 07:36:28;;;;;;;6.10;3.78;;;;;;;9.23;91.73;99697.13;5030199;28;20175;-43
2023/04/13 07:38:57;;;;;;;6.43;3.47;;;;;;;9.04;91.62;99697.19;5014651;28;20224;-41
2023/04/13 07:41:23;;;;;;;5.82;3.83;;;;;;;8.70;92.13;99697.97;5020994;28;20193;-41
2023/04/13 07:43:53;;;;;;;4.47;3.70;;;;;;;8.69;92.80;99696.25;5010138;28;20177;-47
2023/04/13 07:46:25;;;;;;;4.97;3.55;;;;;;;8.41;93.53;99718.94;5016200;28;20200;-43
2023/04/13 07:48:53;;;;;;;4.80;3.60;;;;;;;8.38;94.41;99713.72;5017164;28;20323;-41
2023/04/13 07:51:23;;;;;;;3.88;3.05;;;;;;;8.10;95.96;99717.66;5013588;28;20273;-45
2023/04/13 07:53:51;;;;;;;6.07;4.32;;;;;;;7.97;98.05;99736.00;4999010;28;20263;-42
2023/04/13 07:56:17;;;;;;;5.57;3.08;;;;;;;7.95;99.45;99740.56;5011627;28;20551;-41
2023/04/13 07:58:43;;;;;;;4.28;3.38;;;;;;;7.81;100.00;99735.84;5021499;28;20205;-42
2023/04/13 08:01:09;;;;;;;4.15;3.20;;;;;;;7.82;100.00;99731.38;4996735;28;20173;-42
2023/04/13 08:03:36;;;;;;;4.43;3.80;;;;;;;7.83;100.00;99739.31;5010611;28;20216;-41
2023/04/13 08:06:08;;;;;;;5.00;3.13;;;;;;;7.95;100.00;99747.69;5011922;28;20561;-42
2023/04/13 08:08:34;;;;;;;4.05;3.30;;;;;;;7.97;100.00;99752.03;5009676;28;20283;-49
2023/04/13 08:11:00;;;;;;;7.55;3.42;;;;;;;7.74;100.00;99758.38;5009018;28;20280;-44
2023/04/13 08:13:27;;;;;;;5.78;3.00;;;;;;;7.75;100.00;99761.91;5018394;28;20185;-44
2023/04/13 08:15:56;;;;;;;4.20;3.08;;;;;;;7.63;100.00;99753.53;5015735;28;20653;-47
2023/04/13 08:18:23;;;;;;;5.18;3.03;;;;;;;7.82;100.00;99756.22;5015975;28;20208;-45
2023/04/13 08:20:49;;;;;;;6.10;3.00;;;;;;;7.71;100.00;99758.50;5014636;28;20638;-48
2023/04/13 08:23:16;;;;;;;5.20;2.97;;;;;;;7.78;100.00;99762.66;5011283;28;20184;-48
2023/04/13 08:25:43;;;;;;;3.72;2.72;;;;;;;7.68;100.00;99765.78;5011082;28;20287;-48
2023/04/13 08:28:09;;;;;;;4.68;2.75;;;;;;;7.78;100.00;99770.66;5006739;28;20283;-48
2023/04/13 08:30:35;;;;;;;3.65;2.53;;;;;;;7.89;100.00;99777.31;5013171;28;20185;-48
2023/04/13 08:33:02;;;;;;;3.90;2.78;;;;;;;7.84;100.00;99782.84;5020147;28;20230;-49
2023/04/13 08:35:28;;;;;;;4.40;2.78;;;;;;;7.90;100.00;99789.72;5009321;28;20560;-49
2023/04/13 08:37:54;;;;;;;4.07;2.58;;;;;;;7.84;100.00;99789.03;5009794;28;20199;-48
2023/04/13 08:40:21;;;;;;;3.95;3.25;;;;;;;7.96;100.00;99786.75;5012397;28;20189;-47
2023/04/13 08:42:50;;;;;;;2.90;2.65;;;;;;;7.92;100.00;99787.84;5005890;28;20200;-47
2023/04/13 08:45:17;;;;;;;4.30;2.38;;;;;;;7.80;100.00;99781.22;5014328;28;20180;-48
2023/04/13 08:47:45;;;;;;;4.20;2.60;;;;;;;8.05;100.00;99795.22;5010656;28;20205;-47
2023/04/13 08:50:15;;;;;;;2.90;2.25;;;;;;;8.04;100.00;99787.28;5006716;28;20537;-45
2023/04/13 08:52:44;;;;;;;2.85;2.22;;;;;;;8.16;100.00;99786.75;5012728;28;20199;-48
2023/04/13 08:55:14;;;;;;;2.55;2.08;;;;;;;8.47;100.00;99800.53;5018771;28;20253;-48
2023/04/13 08:57:41;;;;;;;2.40;2.15;;;;;;;8.37;99.15;99792.03;5008358;28;20228;-46
2023/04/13 09:00:14;;;;;;;2.92;2.22;;;;;;;8.31;98.79;99798.53;5007361;28;20333;-47
2023/04/13 09:02:46;;;;;;;2.20;2.00;;;;;;;8.36;98.34;99801.84;4999713;28;20546;-46
2023/04/13 09:05:19;;;;;;;3.53;2.05;;;;;;;8.35;98.54;99799.25;5012669;28;20180;-46
2023/04/13 09:07:52;;;;;;;5.22;1.85;;;;;;;8.23;98.74;99806.88;5022647;28;20207;-46
2023/04/13 09:10:24;;;;;;;2.55;1.50;;;;;;;8.21;98.52;99805.22;5017032;28;20184;-48
2023/04/13 09:12:53;;;;;;;1.73;1.63;;;;;;;8.18;98.91;99811.56;5021862;28;20188;-45
2023/04/13 09:15:19;;;;;;;2.10;1.90;;;;;;;8.25;98.37;99815.69;5006339;28;20609;-46
2023/04/13 09:18:11;;;;;;;2.90;1.90;;;;;;;8.04;97.90;99819.28;5012728;28;20216;-47
2023/04/13 09:20:58;;;;;;;2.05;1.70;;;;;;;8.09;98.21;99813.75;5015487;28;20191;-45
2023/04/13 09:23:25;;;;;;;3.30;1.80;;;;;;;8.18;98.06;99821.38;5014374;28;20190;-46
2023/04/13 09:26:07;;;;;;;1.85;1.50;;;;;;;8.15;97.99;99838.38;5019922;28;20184;-49
2023/04/13 09:28:33;;;;;;;2.47;1.77;;;;;;;8.17;97.66;99838.31;5013140;28;20711;-49
2023/04/13 09:31:03;;;;;;;2.53;1.60;;;;;;;8.28;97.35;99833.34;5014319;28;20200;-46
2023/04/13 09:33:34;;;;;;;2.33;1.67;;;;;;;8.38;97.56;99834.69;5011033;28;20169;-47
2023/04/13 09:36:09;;;;;;;1.92;1.40;;;;;;;8.34;97.10;99841.09;5005204;28;20197;-48
2023/04/13 09:38:35;;;;;;;2.88;1.73;;;;;;;8.27;96.16;99844.13;5013901;28;20662;-47
2023/04/13 09:41:00;;;;;;;2.05;1.80;;;;;;;8.30;96.30;99855.50;5010884;28;20176;-47
2023/04/13 09:43:34;;;;;;;2.42;1.60;;;;;;;8.58;96.33;99863.16;5017067;28;20180;-47
2023/04/13 09:46:00;;;;;;;3.40;1.60;;;;;;;8.60;95.68;99852.44;5019358;28;20246;-46
2023/04/13 09:48:26;;;;;;;1.60;1.50;;;;;;;8.76;95.24;99858.78;5014148;28;20199;-47
2023/04/13 09:51:00;;;;;;;3.17;1.50;;;;;;;8.80;94.63;99855.03;5019517;28;20268;-46
2023/04/13 09:53:28;;;;;;;2.38;1.35;;;;;;;9.16;94.14;99848.91;5009104;28;20198;-46
2023/04/13 09:55:58;;;;;;;2.92;1.50;;;;;;;9.56;93.52;99852.28;5007336;28;20239;-47
2023/04/13 09:58:24;;;;;;;2.10;1.60;;;;;;;9.75;92.76;99851.34;5014261;28;20240;-48
2023/04/13 10:00:50;;;;;;;2.60;1.50;;;;;;;9.64;91.19;99847.44;5004035;28;20180;-46
2023/04/13 10:03:17;;;;;;;4.95;1.60;;;;;;;9.49;89.93;99838.38;5017161;28;20506;-47
2023/04/13 10:05:43;;;;;;;1.58;1.40;;;;;;;9.81;89.27;99837.66;5022574;28;20235;-47
2023/04/13 10:08:09;;;;;;;2.58;1.52;;;;;;;9.68;88.28;99845.44;5023296;28;20223;-46
2023/04/13 10:10:36;;;;;;;3.25;1.65;;;;;;;9.72;86.85;99843.50;5012743;28;20622;-46
2023/04/13 10:13:09;;;;;;;2.53;1.52;;;;;;;9.58;86.59;99845.06;5005172;28;20624;-46
2023/04/13 10:15:44;;;;;;;1.90;1.42;;;;;;;9.40;85.99;99859.31;5024060;28;20347;-49
2023/04/13 10:18:34;;;;;;;2.60;1.67;;;;;;;9.52;86.05;99853.38;5014441;28;20269;-47
2023/04/13 10:21:01;;;;;;;1.75;1.40;;;;;;;9.26;85.34;99841.28;5008830;28;20264;-46
2023/04/13 10:23:30;;;;;;;2.55;1.30;;;;;;;9.42;85.34;99852.97;5007433;28;20267;-46
2023/04/13 10:25:57;;;;;;;2.00;1.20;;;;;;;9.48;84.93;99874.03;5024065;28;20227;-45
2023/04/13 10:28:23;;;;;;;5.13;1.60;;;;;;;9.63;84.73;99863.53;5008572;28;20197;-47
2023/04/13 10:30:50;;;;;;;1.77;1.42;;;;;;;9.70;84.69;99852.44;5005046;28;20184;-47
2023/04/13 10:33:16;;;;;;;3.00;1.48;;;;;;;9.75;84.80;99868.28;5009475;28;20473;-47
2023/04/13 10:35:56;;;;;;;2.17;1.10;;;;;;;9.42;84.42;99865.47;5008282;28;20195;-45
2023/04/13 10:38:23;;;;;;;4.63;1.40;;;;;;;9.06;84.10;99888.53;5018354;28;20287;-45
2023/04/13 10:40:49;;;;;;;2.00;1.30;;;;;;;8.94;84.64;99889.09;5010645;28;20184;-46
2023/04/13 10:43:31;;;;;;;1.40;1.27;;;;;;;9.00;84.98;99891.50;5009658;28;20173;-46
2023/04/13 10:46:11;;;;;;;2.35;1.25;;;;;;;8.73;85.54;99907.00;5026380;28;20191;-47
2023/04/13 10:48:37;;;;;;;3.83;1.67;;;;;;;8.93;86.67;99921.25;5002854;28;20204;-46
2023/04/13 10:51:03;;;;;;;1.58;1.25;;;;;;;9.26;86.96;99925.00;5006746;28;20182;-46
2023/04/13 10:53:33;;;;;;;1.50;1.40;;;;;;;10.06;86.34;99907.72;5011203;28;20209;-47
2023/04/13 10:56:00;;;;;;;2.28;1.50;;;;;;;10.22;84.99;99912.31;5015724;28;20326;-47
2023/04/13 10:58:28;;;;;;;1.85;1.42;;;;;;;10.87;84.87;99904.44;5016799;28;20211;-48
2023/04/13 11:00:54;;;;;;;1.40;1.30;;;;;;;11.48;83.42;99901.03;5012128;28;20196;-47
2023/04/13 11:03:21;;;;;;;3.00;1.60;;;;;;;10.93;81.33;99888.00;5018675;28;20199;-46
2023/04/13 11:05:56;;;;;;;1.77;1.60;;;;;;;10.21;79.83;99884.66;5017735;28;20177;-46
2023/04/13 11:08:23;;;;;;;2.17;1.50;;;;;;;10.54;79.49;99899.94;5011757;28;20231;-46
2023/04/13 11:10:53;;;;;;;3.75;1.80;;;;;;;10.49;79.19;99893.94;5012750;28;20188;-46
2023/04/13 11:13:19;;;;;;;2.88;2.03;;;;;;;10.20;77.84;99880.25;5013108;28;20177;-46
2023/04/13 11:15:45;;;;;;;1.90;1.80;;;;;;;10.63;77.16;99887.88;5009495;28;20766;-47
2023/04/13 11:18:11;;;;;;;2.15;1.98;;;;;;;10.48;76.83;99886.88;5023909;28;20679;-47
2023/04/13 11:20:38;;;;;;;4.90;2.20;;;;;;;10.49;76.96;99891.28;5013177;28;20180;-45
2023/04/13 11:23:14;;;;;;;1.77;1.67;;;;;;;9.77;78.56;99906.50;5012007;28;20173;-50
2023/04/13 11:26:09;;;;;;;1.88;1.77;;;;;;;9.75;81.66;99924.47;5012103;28;20183;-46
2023/04/13 11:28:44;;;;;;;2.83;2.10;;;;;;;10.34;84.33;99942.94;4992220;28;20201;-47
2023/04/13 11:31:11;;;;;;;2.70;2.10;;;;;;;10.77;84.56;99951.44;5014907;28;20188;-45
2023/04/13 11:33:38;;;;;;;2.85;1.90;;;;;;;11.10;83.66;99948.75;5007401;28;20257;-47
2023/04/13 11:36:04;;;;;;;4.22;2.15;;;;;;;11.42;82.80;99938.91;4999471;28;20200;-47
2023/04/13 11:38:31;;;;;;;2.42;1.90;;;;;;;11.11;81.62;99932.56;5015709;28;20211;-47
2023/04/13 11:41:01;;;;;;;2.78;2.05;;;;;;;11.46;80.10;99923.53;5018317;28;20198;-47
2023/04/13 11:43:27;;;;;;;1.98;1.63;;;;;;;11.00;77.73;99916.22;5010504;28;20610;-47
2023/04/13 11:45:53;;;;;;;1.63;1.50;;;;;;;10.95;76.46;99912.91;5003523;28;20200;-46